sensor_id;sensor_type;location;lat;lon;timestamp;P1;durP1;ratioP1;P2;durP2;ratioP2
8413;SDS011;4244;48.684;9.028;2024-01-07T00:02:24;16.50;;;13.83;;
8413;SDS011;4244;48.684;9.028;2024-01-07T00:04:50;15.70;;;14.07;;
8413;SDS011;4244;48.684;9.028;2024-01-07T00:07:17;19.03;;;14.87;;
8413;SDS011;4244;48.684;9.028;2024-01-07T00:09:45;18.70;;;14.30;;
8413;SDS011;4244;48.684;9.028;2024-01-07T00:12:11;18.00;;;13.43;;
8413;SDS011;4244;48.684;9.028;2024-01-07T00:14:36;17.93;;;14.40;;
8413;SDS011;4244;48.684;9.028;2024-01-07T00:17:02;19.27;;;15.37;;
8413;SDS011;4244;48.684;9.028;2024-01-07T00:19:28;18.50;;;14.67;;
8413;SDS011;4244;48.684;9.028;2024-01-07T00:21:56;19.27;;;14.37;;
8413;SDS011;4244;48.684;9.028;2024-01-07T00:24:22;17.07;;;14.20;;
8413;SDS011;4244;48.684;9.028;2024-01-07T00:26:50;16.47;;;13.70;;
8413;SDS011;4244;48.684;9.028;2024-01-07T00:29:16;14.77;;;12.47;;
8413;SDS011;4244;48.684;9.028;2024-01-07T00:31:41;16.83;;;12.80;;
8413;SDS011;4244;48.684;9.028;2024-01-07T00:34:07;15.40;;;12.20;;
8413;SDS011;4244;48.684;9.028;2024-01-07T00:36:32;19.03;;;13.77;;
8413;SDS011;4244;48.684;9.028;2024-01-07T00:38:58;15.97;;;13.17;;
8413;SDS011;4244;48.684;9.028;2024-01-07T00:41:23;15.87;;;12.63;;
8413;SDS011;4244;48.684;9.028;2024-01-07T00:43:49;14.93;;;12.73;;
8413;SDS011;4244;48.684;9.028;2024-01-07T00:46:15;16.40;;;12.70;;
8413;SDS011;4244;48.684;9.028;2024-01-07T00:48:40;18.00;;;13.43;;
8413;SDS011;4244;48.684;9.028;2024-01-07T00:51:06;17.33;;;12.77;;
8413;SDS011;4244;48.684;9.028;2024-01-07T00:53:32;14.80;;;11.90;;
8413;SDS011;4244;48.684;9.028;2024-01-07T00:55:57;17.67;;;14.23;;
8413;SDS011;4244;48.684;9.028;2024-01-07T00:58:23;14.50;;;13.00;;
8413;SDS011;4244;48.684;9.028;2024-01-07T01:00:48;16.20;;;13.70;;
8413;SDS011;4244;48.684;9.028;2024-01-07T01:03:14;19.77;;;15.07;;
8413;SDS011;4244;48.684;9.028;2024-01-07T01:05:40;17.10;;;12.63;;
8413;SDS011;4244;48.684;9.028;2024-01-07T01:08:05;16.93;;;14.50;;
8413;SDS011;4244;48.684;9.028;2024-01-07T01:10:31;14.43;;;12.43;;
8413;SDS011;4244;48.684;9.028;2024-01-07T01:12:57;18.47;;;13.50;;
8413;SDS011;4244;48.684;9.028;2024-01-07T01:15:23;15.87;;;13.50;;
8413;SDS011;4244;48.684;9.028;2024-01-07T01:17:49;20.97;;;16.77;;
8413;SDS011;4244;48.684;9.028;2024-01-07T01:20:15;18.40;;;14.80;;
8413;SDS011;4244;48.684;9.028;2024-01-07T01:22:42;21.43;;;14.90;;
8413;SDS011;4244;48.684;9.028;2024-01-07T01:25:08;19.67;;;15.00;;
8413;SDS011;4244;48.684;9.028;2024-01-07T01:27:33;21.13;;;16.83;;
8413;SDS011;4244;48.684;9.028;2024-01-07T01:29:59;21.33;;;14.83;;
8413;SDS011;4244;48.684;9.028;2024-01-07T01:32:24;22.13;;;15.60;;
8413;SDS011;4244;48.684;9.028;2024-01-07T01:34:51;20.80;;;15.80;;
8413;SDS011;4244;48.684;9.028;2024-01-07T01:37:16;24.00;;;15.93;;
8413;SDS011;4244;48.684;9.028;2024-01-07T01:39:42;24.43;;;14.90;;
8413;SDS011;4244;48.684;9.028;2024-01-07T01:42:09;21.47;;;15.30;;
8413;SDS011;4244;48.684;9.028;2024-01-07T01:44:35;22.67;;;16.10;;
8413;SDS011;4244;48.684;9.028;2024-01-07T01:47:00;23.17;;;15.37;;
8413;SDS011;4244;48.684;9.028;2024-01-07T01:49:27;23.47;;;15.67;;
8413;SDS011;4244;48.684;9.028;2024-01-07T01:51:53;25.73;;;15.50;;
8413;SDS011;4244;48.684;9.028;2024-01-07T01:54:18;26.10;;;14.57;;
8413;SDS011;4244;48.684;9.028;2024-01-07T01:56:45;23.37;;;14.87;;
8413;SDS011;4244;48.684;9.028;2024-01-07T01:59:14;26.90;;;17.43;;
8413;SDS011;4244;48.684;9.028;2024-01-07T02:01:40;25.40;;;15.50;;
8413;SDS011;4244;48.684;9.028;2024-01-07T02:04:27;26.90;;;14.87;;
8413;SDS011;4244;48.684;9.028;2024-01-07T02:07:02;28.70;;;16.43;;
8413;SDS011;4244;48.684;9.028;2024-01-07T02:09:29;43.17;;;17.07;;
8413;SDS011;4244;48.684;9.028;2024-01-07T02:12:04;25.90;;;13.57;;
8413;SDS011;4244;48.684;9.028;2024-01-07T02:14:38;28.27;;;14.57;;
8413;SDS011;4244;48.684;9.028;2024-01-07T02:17:04;24.50;;;14.77;;
8413;SDS011;4244;48.684;9.028;2024-01-07T02:19:30;27.63;;;16.20;;
8413;SDS011;4244;48.684;9.028;2024-01-07T02:21:56;37.70;;;16.50;;
8413;SDS011;4244;48.684;9.028;2024-01-07T02:24:21;22.80;;;14.80;;
8413;SDS011;4244;48.684;9.028;2024-01-07T02:26:47;31.80;;;18.83;;
8413;SDS011;4244;48.684;9.028;2024-01-07T02:29:13;23.80;;;14.33;;
8413;SDS011;4244;48.684;9.028;2024-01-07T02:31:38;30.23;;;15.90;;
8413;SDS011;4244;48.684;9.028;2024-01-07T02:34:04;29.87;;;17.07;;
8413;SDS011;4244;48.684;9.028;2024-01-07T02:36:30;28.33;;;17.03;;
8413;SDS011;4244;48.684;9.028;2024-01-07T02:38:55;43.47;;;17.47;;
8413;SDS011;4244;48.684;9.028;2024-01-07T02:41:21;33.33;;;17.77;;
8413;SDS011;4244;48.684;9.028;2024-01-07T02:43:50;27.10;;;17.23;;
8413;SDS011;4244;48.684;9.028;2024-01-07T02:46:16;25.87;;;16.43;;
8413;SDS011;4244;48.684;9.028;2024-01-07T02:48:41;26.50;;;17.00;;
8413;SDS011;4244;48.684;9.028;2024-01-07T02:51:08;28.90;;;16.80;;
8413;SDS011;4244;48.684;9.028;2024-01-07T02:53:34;29.87;;;17.40;;
8413;SDS011;4244;48.684;9.028;2024-01-07T02:55:59;29.70;;;19.20;;
8413;SDS011;4244;48.684;9.028;2024-01-07T02:58:25;17.80;;;10.07;;
8413;SDS011;4244;48.684;9.028;2024-01-07T03:00:50;27.27;;;14.00;;
8413;SDS011;4244;48.684;9.028;2024-01-07T03:03:16;35.33;;;19.20;;
8413;SDS011;4244;48.684;9.028;2024-01-07T03:05:42;35.23;;;22.37;;
8413;SDS011;4244;48.684;9.028;2024-01-07T03:08:07;31.27;;;21.50;;
8413;SDS011;4244;48.684;9.028;2024-01-07T03:10:33;27.57;;;19.60;;
8413;SDS011;4244;48.684;9.028;2024-01-07T03:13:00;31.33;;;21.20;;
8413;SDS011;4244;48.684;9.028;2024-01-07T03:15:25;27.13;;;19.63;;
8413;SDS011;4244;48.684;9.028;2024-01-07T03:17:51;25.90;;;18.67;;
8413;SDS011;4244;48.684;9.028;2024-01-07T03:20:16;27.80;;;19.67;;
8413;SDS011;4244;48.684;9.028;2024-01-07T03:22:42;27.33;;;19.60;;
8413;SDS011;4244;48.684;9.028;2024-01-07T03:25:07;25.83;;;18.33;;
8413;SDS011;4244;48.684;9.028;2024-01-07T03:27:33;26.83;;;19.17;;
8413;SDS011;4244;48.684;9.028;2024-01-07T03:29:58;29.23;;;20.07;;
8413;SDS011;4244;48.684;9.028;2024-01-07T03:32:24;26.30;;;19.47;;
8413;SDS011;4244;48.684;9.028;2024-01-07T03:34:51;26.67;;;19.03;;
8413;SDS011;4244;48.684;9.028;2024-01-07T03:37:16;23.20;;;18.40;;
8413;SDS011;4244;48.684;9.028;2024-01-07T03:39:42;26.17;;;18.67;;
8413;SDS011;4244;48.684;9.028;2024-01-07T03:42:08;23.27;;;18.00;;
8413;SDS011;4244;48.684;9.028;2024-01-07T03:44:36;26.07;;;19.17;;
8413;SDS011;4244;48.684;9.028;2024-01-07T03:47:03;23.40;;;17.90;;
8413;SDS011;4244;48.684;9.028;2024-01-07T03:49:29;25.07;;;18.77;;
8413;SDS011;4244;48.684;9.028;2024-01-07T03:51:54;22.50;;;16.80;;
8413;SDS011;4244;48.684;9.028;2024-01-07T03:54:20;26.13;;;18.47;;
8413;SDS011;4244;48.684;9.028;2024-01-07T03:56:45;23.37;;;17.57;;
8413;SDS011;4244;48.684;9.028;2024-01-07T03:59:11;24.10;;;17.17;;
8413;SDS011;4244;48.684;9.028;2024-01-07T04:01:36;21.13;;;16.50;;
8413;SDS011;4244;48.684;9.028;2024-01-07T04:04:02;23.20;;;17.47;;
8413;SDS011;4244;48.684;9.028;2024-01-07T04:06:28;28.13;;;17.40;;
8413;SDS011;4244;48.684;9.028;2024-01-07T04:08:54;23.70;;;17.73;;
8413;SDS011;4244;48.684;9.028;2024-01-07T04:11:19;25.67;;;17.13;;
8413;SDS011;4244;48.684;9.028;2024-01-07T04:13:45;21.43;;;16.40;;
8413;SDS011;4244;48.684;9.028;2024-01-07T04:16:19;24.57;;;18.27;;
8413;SDS011;4244;48.684;9.028;2024-01-07T04:18:46;23.63;;;17.70;;
8413;SDS011;4244;48.684;9.028;2024-01-07T04:21:12;22.07;;;16.20;;
8413;SDS011;4244;48.684;9.028;2024-01-07T04:23:40;20.53;;;16.60;;
8413;SDS011;4244;48.684;9.028;2024-01-07T04:26:09;23.87;;;18.57;;
8413;SDS011;4244;48.684;9.028;2024-01-07T04:28:34;24.30;;;17.40;;
8413;SDS011;4244;48.684;9.028;2024-01-07T04:31:00;21.80;;;16.17;;
8413;SDS011;4244;48.684;9.028;2024-01-07T04:33:25;24.03;;;16.70;;
8413;SDS011;4244;48.684;9.028;2024-01-07T04:35:51;20.80;;;17.13;;
8413;SDS011;4244;48.684;9.028;2024-01-07T04:38:17;23.17;;;17.40;;
8413;SDS011;4244;48.684;9.028;2024-01-07T04:40:42;21.10;;;15.93;;
8413;SDS011;4244;48.684;9.028;2024-01-07T04:43:08;23.97;;;16.40;;
8413;SDS011;4244;48.684;9.028;2024-01-07T04:45:33;21.90;;;16.70;;
8413;SDS011;4244;48.684;9.028;2024-01-07T04:47:59;21.73;;;15.77;;
8413;SDS011;4244;48.684;9.028;2024-01-07T04:50:24;24.67;;;17.70;;
8413;SDS011;4244;48.684;9.028;2024-01-07T04:52:50;19.03;;;15.17;;
8413;SDS011;4244;48.684;9.028;2024-01-07T04:55:15;20.30;;;15.80;;
8413;SDS011;4244;48.684;9.028;2024-01-07T04:57:41;18.07;;;15.50;;
8413;SDS011;4244;48.684;9.028;2024-01-07T05:00:06;21.43;;;16.50;;
8413;SDS011;4244;48.684;9.028;2024-01-07T05:02:32;20.47;;;16.20;;
8413;SDS011;4244;48.684;9.028;2024-01-07T05:04:58;18.63;;;16.33;;
8413;SDS011;4244;48.684;9.028;2024-01-07T05:07:23;18.43;;;14.70;;
8413;SDS011;4244;48.684;9.028;2024-01-07T05:09:49;20.50;;;16.90;;
8413;SDS011;4244;48.684;9.028;2024-01-07T05:12:15;17.47;;;15.20;;
8413;SDS011;4244;48.684;9.028;2024-01-07T05:14:40;18.73;;;14.27;;
8413;SDS011;4244;48.684;9.028;2024-01-07T05:17:07;15.77;;;13.40;;
8413;SDS011;4244;48.684;9.028;2024-01-07T05:19:33;17.97;;;14.03;;
8413;SDS011;4244;48.684;9.028;2024-01-07T05:21:58;17.40;;;12.53;;
8413;SDS011;4244;48.684;9.028;2024-01-07T05:24:24;17.07;;;13.03;;
8413;SDS011;4244;48.684;9.028;2024-01-07T05:26:50;17.10;;;13.43;;
8413;SDS011;4244;48.684;9.028;2024-01-07T05:29:16;16.33;;;13.47;;
8413;SDS011;4244;48.684;9.028;2024-01-07T05:31:41;16.10;;;13.00;;
8413;SDS011;4244;48.684;9.028;2024-01-07T05:34:07;17.43;;;13.63;;
8413;SDS011;4244;48.684;9.028;2024-01-07T05:36:32;17.40;;;14.20;;
8413;SDS011;4244;48.684;9.028;2024-01-07T05:38:58;15.80;;;12.20;;
8413;SDS011;4244;48.684;9.028;2024-01-07T05:41:23;15.90;;;12.70;;
8413;SDS011;4244;48.684;9.028;2024-01-07T05:43:49;16.67;;;13.00;;
8413;SDS011;4244;48.684;9.028;2024-01-07T05:46:14;13.70;;;11.77;;
8413;SDS011;4244;48.684;9.028;2024-01-07T05:48:41;14.83;;;11.93;;
8413;SDS011;4244;48.684;9.028;2024-01-07T05:51:08;14.40;;;12.90;;
8413;SDS011;4244;48.684;9.028;2024-01-07T05:53:34;15.90;;;12.93;;
8413;SDS011;4244;48.684;9.028;2024-01-07T05:55:59;13.13;;;10.53;;
8413;SDS011;4244;48.684;9.028;2024-01-07T05:58:25;14.10;;;12.00;;
8413;SDS011;4244;48.684;9.028;2024-01-07T06:00:51;13.40;;;12.00;;
8413;SDS011;4244;48.684;9.028;2024-01-07T06:03:16;16.70;;;13.53;;
8413;SDS011;4244;48.684;9.028;2024-01-07T06:05:42;15.50;;;12.43;;
8413;SDS011;4244;48.684;9.028;2024-01-07T06:08:07;16.10;;;13.20;;
8413;SDS011;4244;48.684;9.028;2024-01-07T06:10:33;15.23;;;12.20;;
8413;SDS011;4244;48.684;9.028;2024-01-07T06:12:59;15.27;;;12.30;;
8413;SDS011;4244;48.684;9.028;2024-01-07T06:15:25;14.87;;;12.80;;
8413;SDS011;4244;48.684;9.028;2024-01-07T06:17:50;16.00;;;13.37;;
8413;SDS011;4244;48.684;9.028;2024-01-07T06:20:16;16.87;;;13.37;;
8413;SDS011;4244;48.684;9.028;2024-01-07T06:22:42;17.40;;;14.30;;
8413;SDS011;4244;48.684;9.028;2024-01-07T06:25:08;15.67;;;13.50;;
8413;SDS011;4244;48.684;9.028;2024-01-07T06:27:34;16.60;;;13.40;;
8413;SDS011;4244;48.684;9.028;2024-01-07T06:29:59;20.23;;;14.60;;
8413;SDS011;4244;48.684;9.028;2024-01-07T06:32:25;17.33;;;13.03;;
8413;SDS011;4244;48.684;9.028;2024-01-07T06:34:50;16.77;;;12.93;;
8413;SDS011;4244;48.684;9.028;2024-01-07T06:37:17;15.37;;;13.30;;
8413;SDS011;4244;48.684;9.028;2024-01-07T06:39:42;15.97;;;13.20;;
8413;SDS011;4244;48.684;9.028;2024-01-07T06:42:08;16.63;;;13.60;;
8413;SDS011;4244;48.684;9.028;2024-01-07T06:44:33;15.53;;;13.50;;
8413;SDS011;4244;48.684;9.028;2024-01-07T06:46:59;15.47;;;13.70;;
8413;SDS011;4244;48.684;9.028;2024-01-07T06:49:24;17.67;;;14.67;;
8413;SDS011;4244;48.684;9.028;2024-01-07T06:51:50;16.50;;;14.70;;
8413;SDS011;4244;48.684;9.028;2024-01-07T06:54:15;17.10;;;14.93;;
8413;SDS011;4244;48.684;9.028;2024-01-07T06:56:41;20.30;;;16.23;;
8413;SDS011;4244;48.684;9.028;2024-01-07T06:59:07;17.20;;;15.40;;
8413;SDS011;4244;48.684;9.028;2024-01-07T07:01:33;17.47;;;15.67;;
8413;SDS011;4244;48.684;9.028;2024-01-07T07:03:58;18.37;;;14.80;;
8413;SDS011;4244;48.684;9.028;2024-01-07T07:06:24;18.03;;;15.40;;
8413;SDS011;4244;48.684;9.028;2024-01-07T07:08:49;17.20;;;15.40;;
8413;SDS011;4244;48.684;9.028;2024-01-07T07:11:15;20.40;;;15.70;;
8413;SDS011;4244;48.684;9.028;2024-01-07T07:13:41;18.10;;;15.53;;
8413;SDS011;4244;48.684;9.028;2024-01-07T07:16:07;17.80;;;14.90;;
8413;SDS011;4244;48.684;9.028;2024-01-07T07:18:32;17.80;;;15.37;;
8413;SDS011;4244;48.684;9.028;2024-01-07T07:20:58;16.93;;;14.20;;
8413;SDS011;4244;48.684;9.028;2024-01-07T07:23:23;17.17;;;14.67;;
8413;SDS011;4244;48.684;9.028;2024-01-07T07:25:49;17.57;;;14.97;;
8413;SDS011;4244;48.684;9.028;2024-01-07T07:28:14;18.77;;;14.37;;
8413;SDS011;4244;48.684;9.028;2024-01-07T07:30:42;16.20;;;14.50;;
8413;SDS011;4244;48.684;9.028;2024-01-07T07:33:07;17.50;;;14.10;;
8413;SDS011;4244;48.684;9.028;2024-01-07T07:35:33;17.53;;;15.30;;
8413;SDS011;4244;48.684;9.028;2024-01-07T07:37:58;17.30;;;14.77;;
8413;SDS011;4244;48.684;9.028;2024-01-07T07:40:24;16.77;;;14.90;;
8413;SDS011;4244;48.684;9.028;2024-01-07T07:42:50;17.40;;;14.73;;
8413;SDS011;4244;48.684;9.028;2024-01-07T07:45:16;17.30;;;14.20;;
8413;SDS011;4244;48.684;9.028;2024-01-07T07:47:44;17.57;;;14.83;;
8413;SDS011;4244;48.684;9.028;2024-01-07T07:50:10;14.37;;;12.77;;
8413;SDS011;4244;48.684;9.028;2024-01-07T07:52:36;15.47;;;13.20;;
8413;SDS011;4244;48.684;9.028;2024-01-07T07:55:01;15.83;;;12.90;;
8413;SDS011;4244;48.684;9.028;2024-01-07T07:57:27;15.00;;;12.80;;
8413;SDS011;4244;48.684;9.028;2024-01-07T07:59:55;15.30;;;13.00;;
8413;SDS011;4244;48.684;9.028;2024-01-07T08:02:20;14.23;;;12.73;;
8413;SDS011;4244;48.684;9.028;2024-01-07T08:04:46;13.97;;;12.60;;
8413;SDS011;4244;48.684;9.028;2024-01-07T08:07:12;14.57;;;12.57;;
8413;SDS011;4244;48.684;9.028;2024-01-07T08:09:37;14.57;;;11.83;;
8413;SDS011;4244;48.684;9.028;2024-01-07T08:12:03;15.33;;;13.03;;
8413;SDS011;4244;48.684;9.028;2024-01-07T08:14:30;12.57;;;10.90;;
8413;SDS011;4244;48.684;9.028;2024-01-07T08:16:56;18.00;;;13.13;;
8413;SDS011;4244;48.684;9.028;2024-01-07T08:19:22;14.50;;;11.60;;
8413;SDS011;4244;48.684;9.028;2024-01-07T08:21:47;14.80;;;13.30;;
8413;SDS011;4244;48.684;9.028;2024-01-07T08:24:13;13.63;;;12.20;;
8413;SDS011;4244;48.684;9.028;2024-01-07T08:26:38;13.40;;;11.20;;
8413;SDS011;4244;48.684;9.028;2024-01-07T08:29:04;14.93;;;12.20;;
8413;SDS011;4244;48.684;9.028;2024-01-07T08:31:30;12.40;;;11.20;;
8413;SDS011;4244;48.684;9.028;2024-01-07T08:33:56;16.70;;;14.93;;
8413;SDS011;4244;48.684;9.028;2024-01-07T08:36:21;15.83;;;12.27;;
8413;SDS011;4244;48.684;9.028;2024-01-07T08:38:47;14.10;;;12.63;;
8413;SDS011;4244;48.684;9.028;2024-01-07T08:41:15;17.33;;;10.80;;
8413;SDS011;4244;48.684;9.028;2024-01-07T08:43:41;12.23;;;10.83;;
8413;SDS011;4244;48.684;9.028;2024-01-07T08:46:06;15.40;;;11.80;;
8413;SDS011;4244;48.684;9.028;2024-01-07T08:48:32;13.63;;;12.23;;
8413;SDS011;4244;48.684;9.028;2024-01-07T08:50:57;11.63;;;10.10;;
8413;SDS011;4244;48.684;9.028;2024-01-07T08:53:23;13.00;;;10.90;;
8413;SDS011;4244;48.684;9.028;2024-01-07T08:55:48;12.20;;;10.00;;
8413;SDS011;4244;48.684;9.028;2024-01-07T08:58:15;13.27;;;11.27;;
8413;SDS011;4244;48.684;9.028;2024-01-07T09:00:42;13.37;;;10.77;;
8413;SDS011;4244;48.684;9.028;2024-01-07T09:03:08;12.90;;;10.97;;
8413;SDS011;4244;48.684;9.028;2024-01-07T09:05:33;15.30;;;10.67;;
8413;SDS011;4244;48.684;9.028;2024-01-07T09:07:59;12.53;;;10.90;;
8413;SDS011;4244;48.684;9.028;2024-01-07T09:10:25;13.40;;;11.63;;
8413;SDS011;4244;48.684;9.028;2024-01-07T09:12:51;13.40;;;12.00;;
8413;SDS011;4244;48.684;9.028;2024-01-07T09:15:18;12.50;;;11.10;;
8413;SDS011;4244;48.684;9.028;2024-01-07T09:17:44;13.00;;;10.60;;
8413;SDS011;4244;48.684;9.028;2024-01-07T09:20:10;13.60;;;10.50;;
8413;SDS011;4244;48.684;9.028;2024-01-07T09:22:36;13.77;;;11.03;;
8413;SDS011;4244;48.684;9.028;2024-01-07T09:25:05;13.33;;;10.50;;
8413;SDS011;4244;48.684;9.028;2024-01-07T09:27:31;14.10;;;11.37;;
8413;SDS011;4244;48.684;9.028;2024-01-07T09:29:57;12.33;;;9.93;;
8413;SDS011;4244;48.684;9.028;2024-01-07T09:32:23;9.70;;;8.70;;
8413;SDS011;4244;48.684;9.028;2024-01-07T09:34:48;10.67;;;9.17;;
8413;SDS011;4244;48.684;9.028;2024-01-07T09:37:14;11.13;;;9.70;;
8413;SDS011;4244;48.684;9.028;2024-01-07T09:39:40;12.27;;;9.17;;
8413;SDS011;4244;48.684;9.028;2024-01-07T09:42:12;13.17;;;9.67;;
8413;SDS011;4244;48.684;9.028;2024-01-07T09:44:37;11.57;;;8.87;;
8413;SDS011;4244;48.684;9.028;2024-01-07T09:47:04;9.93;;;8.60;;
8413;SDS011;4244;48.684;9.028;2024-01-07T09:49:30;10.47;;;7.90;;
8413;SDS011;4244;48.684;9.028;2024-01-07T09:51:58;12.33;;;8.57;;
8413;SDS011;4244;48.684;9.028;2024-01-07T09:54:26;11.10;;;8.80;;
8413;SDS011;4244;48.684;9.028;2024-01-07T09:56:55;11.93;;;8.63;;
8413;SDS011;4244;48.684;9.028;2024-01-07T09:59:22;10.70;;;8.60;;
8413;SDS011;4244;48.684;9.028;2024-01-07T10:01:48;9.57;;;8.20;;
8413;SDS011;4244;48.684;9.028;2024-01-07T10:04:14;10.47;;;9.37;;
8413;SDS011;4244;48.684;9.028;2024-01-07T10:06:39;9.73;;;8.73;;
8413;SDS011;4244;48.684;9.028;2024-01-07T10:09:06;8.50;;;7.57;;
8413;SDS011;4244;48.684;9.028;2024-01-07T10:11:31;9.73;;;7.77;;
8413;SDS011;4244;48.684;9.028;2024-01-07T10:13:57;9.97;;;8.40;;
8413;SDS011;4244;48.684;9.028;2024-01-07T10:16:23;12.60;;;10.90;;
8413;SDS011;4244;48.684;9.028;2024-01-07T10:18:49;9.00;;;8.00;;
8413;SDS011;4244;48.684;9.028;2024-01-07T10:21:14;9.60;;;8.60;;
8413;SDS011;4244;48.684;9.028;2024-01-07T10:23:40;16.93;;;12.97;;
8413;SDS011;4244;48.684;9.028;2024-01-07T10:26:06;16.00;;;12.67;;
8413;SDS011;4244;48.684;9.028;2024-01-07T10:28:32;9.17;;;8.17;;
8413;SDS011;4244;48.684;9.028;2024-01-07T10:30:57;11.23;;;9.33;;
8413;SDS011;4244;48.684;9.028;2024-01-07T10:33:23;13.20;;;10.47;;
8413;SDS011;4244;48.684;9.028;2024-01-07T10:35:52;14.73;;;10.73;;
8413;SDS011;4244;48.684;9.028;2024-01-07T10:38:22;10.33;;;9.23;;
8413;SDS011;4244;48.684;9.028;2024-01-07T10:40:47;10.20;;;8.00;;
8413;SDS011;4244;48.684;9.028;2024-01-07T10:43:15;13.77;;;10.70;;
8413;SDS011;4244;48.684;9.028;2024-01-07T10:45:42;13.27;;;10.20;;
8413;SDS011;4244;48.684;9.028;2024-01-07T10:48:08;11.67;;;10.20;;
8413;SDS011;4244;48.684;9.028;2024-01-07T10:50:35;12.63;;;10.50;;
8413;SDS011;4244;48.684;9.028;2024-01-07T10:53:03;11.33;;;9.83;;
8413;SDS011;4244;48.684;9.028;2024-01-07T10:55:34;13.23;;;10.23;;
8413;SDS011;4244;48.684;9.028;2024-01-07T10:58:03;13.80;;;10.50;;
8413;SDS011;4244;48.684;9.028;2024-01-07T11:00:29;12.50;;;10.30;;
8413;SDS011;4244;48.684;9.028;2024-01-07T11:03:04;10.50;;;8.67;;
8413;SDS011;4244;48.684;9.028;2024-01-07T11:08:23;10.07;;;9.00;;
8413;SDS011;4244;48.684;9.028;2024-01-07T11:11:13;9.40;;;8.30;;
8413;SDS011;4244;48.684;9.028;2024-01-07T11:13:45;10.87;;;9.30;;
8413;SDS011;4244;48.684;9.028;2024-01-07T11:16:11;8.93;;;8.03;;
8413;SDS011;4244;48.684;9.028;2024-01-07T11:21:10;9.20;;;7.90;;
8413;SDS011;4244;48.684;9.028;2024-01-07T11:23:36;9.70;;;8.07;;
8413;SDS011;4244;48.684;9.028;2024-01-07T11:26:08;9.80;;;8.47;;
8413;SDS011;4244;48.684;9.028;2024-01-07T11:28:51;13.87;;;10.07;;
8413;SDS011;4244;48.684;9.028;2024-01-07T11:34:03;9.23;;;8.27;;
8413;SDS011;4244;48.684;9.028;2024-01-07T11:36:29;11.13;;;8.80;;
8413;SDS011;4244;48.684;9.028;2024-01-07T11:38:54;8.43;;;7.50;;
8413;SDS011;4244;48.684;9.028;2024-01-07T11:41:21;9.80;;;8.80;;
8413;SDS011;4244;48.684;9.028;2024-01-07T11:46:24;9.53;;;8.30;;
8413;SDS011;4244;48.684;9.028;2024-01-07T11:48:53;9.10;;;8.20;;
8413;SDS011;4244;48.684;9.028;2024-01-07T11:51:29;10.63;;;8.67;;
8413;SDS011;4244;48.684;9.028;2024-01-07T11:53:59;8.97;;;8.07;;
8413;SDS011;4244;48.684;9.028;2024-01-07T11:56:25;8.93;;;7.30;;
8413;SDS011;4244;48.684;9.028;2024-01-07T11:58:51;8.30;;;7.50;;
8413;SDS011;4244;48.684;9.028;2024-01-07T12:01:17;12.60;;;9.73;;
8413;SDS011;4244;48.684;9.028;2024-01-07T12:03:43;9.70;;;8.37;;
8413;SDS011;4244;48.684;9.028;2024-01-07T12:06:09;11.50;;;10.30;;
8413;SDS011;4244;48.684;9.028;2024-01-07T12:08:38;8.73;;;7.83;;
8413;SDS011;4244;48.684;9.028;2024-01-07T12:11:13;11.30;;;8.53;;
8413;SDS011;4244;48.684;9.028;2024-01-07T12:13:39;13.40;;;10.43;;
8413;SDS011;4244;48.684;9.028;2024-01-07T12:16:05;11.93;;;8.63;;
8413;SDS011;4244;48.684;9.028;2024-01-07T12:18:31;9.63;;;8.40;;
8413;SDS011;4244;48.684;9.028;2024-01-07T12:20:57;11.40;;;8.77;;
8413;SDS011;4244;48.684;9.028;2024-01-07T12:23:28;11.27;;;8.60;;
8413;SDS011;4244;48.684;9.028;2024-01-07T12:25:54;10.43;;;9.40;;
8413;SDS011;4244;48.684;9.028;2024-01-07T12:28:20;8.97;;;8.07;;
8413;SDS011;4244;48.684;9.028;2024-01-07T12:30:49;8.50;;;7.67;;
8413;SDS011;4244;48.684;9.028;2024-01-07T12:33:16;12.53;;;8.83;;
8413;SDS011;4244;48.684;9.028;2024-01-07T12:35:44;12.17;;;8.50;;
8413;SDS011;4244;48.684;9.028;2024-01-07T12:38:10;18.97;;;13.17;;
8413;SDS011;4244;48.684;9.028;2024-01-07T12:40:36;18.57;;;14.70;;
8413;SDS011;4244;48.684;9.028;2024-01-07T12:43:01;11.83;;;10.53;;
8413;SDS011;4244;48.684;9.028;2024-01-07T12:45:27;8.77;;;7.97;;
8413;SDS011;4244;48.684;9.028;2024-01-07T12:47:53;10.40;;;9.23;;
8413;SDS011;4244;48.684;9.028;2024-01-07T12:50:20;10.67;;;8.87;;
8413;SDS011;4244;48.684;9.028;2024-01-07T12:52:48;10.13;;;9.13;;
8413;SDS011;4244;48.684;9.028;2024-01-07T12:55:13;10.70;;;9.70;;
8413;SDS011;4244;48.684;9.028;2024-01-07T12:57:39;10.20;;;9.20;;
8413;SDS011;4244;48.684;9.028;2024-01-07T13:00:04;12.50;;;11.30;;
8413;SDS011;4244;48.684;9.028;2024-01-07T13:02:31;12.40;;;11.10;;
8413;SDS011;4244;48.684;9.028;2024-01-07T13:04:59;11.07;;;9.67;;
8413;SDS011;4244;48.684;9.028;2024-01-07T13:07:24;11.13;;;9.53;;
8413;SDS011;4244;48.684;9.028;2024-01-07T13:09:50;15.00;;;11.00;;
8413;SDS011;4244;48.684;9.028;2024-01-07T13:12:16;16.60;;;12.90;;
8413;SDS011;4244;48.684;9.028;2024-01-07T13:14:42;14.33;;;12.40;;
8413;SDS011;4244;48.684;9.028;2024-01-07T13:17:08;15.10;;;10.87;;
8413;SDS011;4244;48.684;9.028;2024-01-07T13:19:34;11.17;;;10.07;;
8413;SDS011;4244;48.684;9.028;2024-01-07T13:22:00;11.80;;;10.60;;
8413;SDS011;4244;48.684;9.028;2024-01-07T13:24:26;10.27;;;9.37;;
8413;SDS011;4244;48.684;9.028;2024-01-07T13:26:53;11.40;;;10.30;;
8413;SDS011;4244;48.684;9.028;2024-01-07T13:29:18;9.90;;;8.97;;
8413;SDS011;4244;48.684;9.028;2024-01-07T13:31:44;10.80;;;9.70;;
8413;SDS011;4244;48.684;9.028;2024-01-07T13:34:09;10.90;;;9.90;;
8413;SDS011;4244;48.684;9.028;2024-01-07T13:36:35;16.60;;;14.63;;
8413;SDS011;4244;48.684;9.028;2024-01-07T13:39:01;17.87;;;15.80;;
8413;SDS011;4244;48.684;9.028;2024-01-07T13:41:27;20.77;;;17.27;;
8413;SDS011;4244;48.684;9.028;2024-01-07T13:43:54;26.23;;;20.87;;
8413;SDS011;4244;48.684;9.028;2024-01-07T13:46:21;17.47;;;14.20;;
8413;SDS011;4244;48.684;9.028;2024-01-07T13:48:48;19.43;;;16.33;;
8413;SDS011;4244;48.684;9.028;2024-01-07T13:51:14;22.60;;;18.23;;
8413;SDS011;4244;48.684;9.028;2024-01-07T13:53:40;14.13;;;12.63;;
8413;SDS011;4244;48.684;9.028;2024-01-07T13:56:06;12.93;;;11.70;;
8413;SDS011;4244;48.684;9.028;2024-01-07T13:58:32;14.20;;;12.33;;
8413;SDS011;4244;48.684;9.028;2024-01-07T14:00:57;13.23;;;11.90;;
8413;SDS011;4244;48.684;9.028;2024-01-07T14:03:23;14.43;;;12.93;;
8413;SDS011;4244;48.684;9.028;2024-01-07T14:05:49;12.13;;;10.83;;
8413;SDS011;4244;48.684;9.028;2024-01-07T14:08:16;13.77;;;11.73;;
8413;SDS011;4244;48.684;9.028;2024-01-07T14:10:42;13.90;;;11.43;;
8413;SDS011;4244;48.684;9.028;2024-01-07T14:13:07;13.43;;;11.90;;
8413;SDS011;4244;48.684;9.028;2024-01-07T14:15:34;14.10;;;12.60;;
8413;SDS011;4244;48.684;9.028;2024-01-07T14:18:00;13.80;;;12.30;;
8413;SDS011;4244;48.684;9.028;2024-01-07T14:20:26;15.93;;;13.00;;
8413;SDS011;4244;48.684;9.028;2024-01-07T14:22:53;12.47;;;11.00;;
8413;SDS011;4244;48.684;9.028;2024-01-07T14:25:19;13.33;;;11.67;;
8413;SDS011;4244;48.684;9.028;2024-01-07T14:27:46;13.23;;;11.37;;
8413;SDS011;4244;48.684;9.028;2024-01-07T14:30:12;13.40;;;11.40;;
8413;SDS011;4244;48.684;9.028;2024-01-07T14:32:39;13.27;;;11.50;;
8413;SDS011;4244;48.684;9.028;2024-01-07T14:35:06;17.97;;;13.67;;
8413;SDS011;4244;48.684;9.028;2024-01-07T14:37:32;15.53;;;12.57;;
8413;SDS011;4244;48.684;9.028;2024-01-07T14:39:58;13.70;;;12.30;;
8413;SDS011;4244;48.684;9.028;2024-01-07T14:42:23;17.90;;;14.40;;
8413;SDS011;4244;48.684;9.028;2024-01-07T14:44:49;19.70;;;14.40;;
8413;SDS011;4244;48.684;9.028;2024-01-07T14:47:15;18.90;;;14.20;;
8413;SDS011;4244;48.684;9.028;2024-01-07T14:49:41;14.73;;;11.83;;
8413;SDS011;4244;48.684;9.028;2024-01-07T14:52:07;17.83;;;13.67;;
8413;SDS011;4244;48.684;9.028;2024-01-07T14:54:32;16.53;;;14.40;;
8413;SDS011;4244;48.684;9.028;2024-01-07T14:57:00;17.33;;;14.07;;